Time;durP1;ratioP1;P1;durP2;ratioP2;P2;SDS_P1;SDS_P2;PMS_P1;PMS_P2;Temp;Humidity;BMP_temperature;BMP_pressure;BME280_temperature;BME280_humidity;BME280_pressure;Samples;Min_cycle;Max_cycle;Signal;HPM_P1;HPM_P2
2022/11/08 00:02:36;;;;;;;1.00;0.70;;;;;;;;;;6153909;23;20112;-89
2022/11/08 00:16:11;;;;;;;0.77;0.60;;;;;;;;;;6155211;23;20028;-91
2022/11/08 00:18:39;;;;;;;0.38;0.38;;;;;;;;;;6155686;23;20028;-92
2022/11/08 00:21:09;;;;;;;2.85;0.45;;;;;;;;;;6153439;23;20028;-89
2022/11/08 00:23:37;;;;;;;0.60;0.40;;;;;;;;;;6155503;23;20029;-93
2022/11/08 00:26:06;;;;;;;0.90;0.75;;;;;;;;;;6154589;23;20029;-92
2022/11/08 00:28:34;;;;;;;0.47;0.47;;;;;;;;;;6156639;23;20137;-89
2022/11/08 00:31:05;;;;;;;0.30;0.30;;;;;;;;;;6154666;23;20080;-90
2022/11/08 00:33:34;;;;;;;0.68;0.68;;;;;;;;;;6153534;23;20526;-87
2022/11/08 00:36:02;;;;;;;0.47;0.43;;;;;;;;;;6154624;23;20506;-90
2022/11/08 00:38:32;;;;;;;0.15;0.15;;;;;;;;;;6153753;23;20092;-91
2022/11/08 00:41:00;;;;;;;0.60;0.57;;;;;;;;;;6155457;23;20028;-90
2022/11/08 00:43:29;;;;;;;2.25;0.77;;;;;;;;;;6154728;23;20022;-91
2022/11/08 00:45:57;;;;;;;0.75;0.70;;;;;;;;;;6152717;23;20025;-90
2022/11/08 00:48:25;;;;;;;0.20;0.20;;;;;;;;;;6155552;23;20017;-90
2022/11/08 00:50:54;;;;;;;2.80;0.63;;;;;;;;;;6154014;23;20183;-91
2022/11/08 00:53:22;;;;;;;0.35;0.35;;;;;;;;;;6155924;23;20070;-91
2022/11/08 00:55:58;;;;;;;1.35;0.43;;;;;;;;;;6152637;23;20025;-89
2022/11/08 00:58:27;;;;;;;0.80;0.47;;;;;;;;;;6154222;23;20025;-88
2022/11/08 01:00:56;;;;;;;0.38;0.20;;;;;;;;;;6153736;23;20088;-91
2022/11/08 01:03:25;;;;;;;3.85;0.85;;;;;;;;;;6154783;23;20026;-90
2022/11/08 01:05:54;;;;;;;0.65;0.65;;;;;;;;;;6155354;23;20100;-91
2022/11/08 01:08:23;;;;;;;1.95;0.45;;;;;;;;;;6154261;23;20029;-91
2022/11/08 01:10:53;;;;;;;0.50;0.50;;;;;;;;;;6154399;23;20045;-91
2022/11/08 01:13:21;;;;;;;0.52;0.47;;;;;;;;;;6154562;23;20025;-90
2022/11/08 01:15:50;;;;;;;0.30;0.30;;;;;;;;;;6154950;23;20383;-87
2022/11/08 01:18:18;;;;;;;0.75;0.22;;;;;;;;;;6155655;23;20021;-90
2022/11/08 01:20:49;;;;;;;0.80;0.63;;;;;;;;;;6153418;23;20350;-90
2022/11/08 01:23:18;;;;;;;0.22;0.22;;;;;;;;;;6154486;23;20022;-91
2022/11/08 01:25:47;;;;;;;0.40;0.40;;;;;;;;;;6155303;23;20022;-90
2022/11/08 01:28:17;;;;;;;0.15;0.15;;;;;;;;;;6154062;23;20045;-90
2022/11/08 01:30:46;;;;;;;0.47;0.40;;;;;;;;;;6154013;23;20097;-90
2022/11/08 01:33:15;;;;;;;1.13;1.00;;;;;;;;;;6154954;23;20025;-90
2022/11/08 01:35:44;;;;;;;0.30;0.30;;;;;;;;;;6154591;23;20018;-90
2022/11/08 01:38:13;;;;;;;0.30;0.30;;;;;;;;;;6152971;23;20025;-91
2022/11/08 01:40:45;;;;;;;2.40;0.52;;;;;;;;;;6153772;23;20390;-90
2022/11/08 01:43:28;;;;;;;0.90;0.65;;;;;;;;;;6153991;23;20024;-91
2022/11/08 01:46:30;;;;;;;0.57;0.47;;;;;;;;;;6150248;23;20026;-90
2022/11/08 01:49:01;;;;;;;0.75;0.40;;;;;;;;;;6154398;23;20086;-87
2022/11/08 01:51:31;;;;;;;0.50;0.50;;;;;;;;;;6153359;23;20061;-91
2022/11/08 01:54:00;;;;;;;0.13;0.13;;;;;;;;;;6153539;23;20021;-89
2022/11/08 01:56:28;;;;;;;2.47;0.50;;;;;;;;;;6153320;23;20101;-91
2022/11/08 01:58:58;;;;;;;1.85;0.82;;;;;;;;;;6152963;23;20017;-89
2022/11/08 02:01:26;;;;;;;0.90;0.32;;;;;;;;;;6153571;23;20021;-91
2022/11/08 02:03:55;;;;;;;0.20;0.20;;;;;;;;;;6153846;23;20021;-90
2022/11/08 02:06:24;;;;;;;0.38;0.38;;;;;;;;;;6154396;23;20021;-87
2022/11/08 02:08:53;;;;;;;0.85;0.25;;;;;;;;;;6155091;23;20040;-89
2022/11/08 02:11:21;;;;;;;0.65;0.50;;;;;;;;;;6152769;23;20040;-88
2022/11/08 02:13:49;;;;;;;1.02;0.40;;;;;;;;;;6153528;23;20021;-90
2022/11/08 02:16:18;;;;;;;0.68;0.68;;;;;;;;;;6154055;23;20032;-90
2022/11/08 02:18:46;;;;;;;0.20;0.20;;;;;;;;;;6154101;23;20018;-90
2022/11/08 02:21:17;;;;;;;0.60;0.60;;;;;;;;;;6152498;23;20076;-91
2022/11/08 02:23:48;;;;;;;0.43;0.43;;;;;;;;;;6154078;23;20022;-86
2022/11/08 02:26:17;;;;;;;0.95;0.47;;;;;;;;;;6153105;23;20128;-91
2022/11/08 02:28:46;;;;;;;0.22;0.22;;;;;;;;;;6153004;23;20018;-89
2022/11/08 02:31:15;;;;;;;2.25;0.60;;;;;;;;;;6152593;23;20455;-90
2022/11/08 02:33:44;;;;;;;0.20;0.20;;;;;;;;;;6153143;23;20035;-91
2022/11/08 02:36:14;;;;;;;0.85;0.85;;;;;;;;;;6151863;23;20022;-90
2022/11/08 02:38:44;;;;;;;1.13;0.60;;;;;;;;;;6153195;23;20504;-90
2022/11/08 02:41:13;;;;;;;1.55;0.93;;;;;;;;;;6153192;23;20022;-88
2022/11/08 02:43:42;;;;;;;1.15;1.05;;;;;;;;;;6152787;23;20485;-90
2022/11/08 02:46:10;;;;;;;0.65;0.65;;;;;;;;;;6152022;23;20053;-90
2022/11/08 02:48:38;;;;;;;2.28;0.40;;;;;;;;;;6153967;23;20040;-91
2022/11/08 02:51:07;;;;;;;0.30;0.20;;;;;;;;;;6152027;23;20021;-91
2022/11/08 02:53:35;;;;;;;0.55;0.40;;;;;;;;;;6154631;23;20025;-90
2022/11/08 02:56:03;;;;;;;0.40;0.40;;;;;;;;;;6152919;23;20552;-91
2022/11/08 02:58:33;;;;;;;0.68;0.68;;;;;;;;;;6153011;23;20033;-91
2022/11/08 03:01:01;;;;;;;0.10;0.10;;;;;;;;;;6153817;23;20469;-91
2022/11/08 03:03:30;;;;;;;0.20;0.20;;;;;;;;;;6156361;23;20021;-90
2022/11/08 03:05:58;;;;;;;1.95;0.95;;;;;;;;;;6156489;23;20036;-89
2022/11/08 03:08:31;;;;;;;0.35;0.35;;;;;;;;;;6157191;23;20048;-91
2022/11/08 03:11:00;;;;;;;1.00;0.65;;;;;;;;;;6155732;23;20053;-90
2022/11/08 03:13:28;;;;;;;0.20;0.20;;;;;;;;;;6156214;23;20362;-90
2022/11/08 03:15:58;;;;;;;0.35;0.35;;;;;;;;;;6156811;23;20072;-90
2022/11/08 03:18:26;;;;;;;0.10;0.10;;;;;;;;;;6155703;23;20319;-91
2022/11/08 03:20:55;;;;;;;0.20;0.20;;;;;;;;;;6156180;23;20033;-87
2022/11/08 03:23:23;;;;;;;0.73;0.22;;;;;;;;;;6156535;23;20354;-90
2022/11/08 03:25:51;;;;;;;0.68;0.20;;;;;;;;;;6157172;23;20482;-89
2022/11/08 03:28:20;;;;;;;0.20;0.20;;;;;;;;;;6156344;23;20059;-90
2022/11/08 03:30:51;;;;;;;0.90;0.45;;;;;;;;;;6155922;23;20033;-90
2022/11/08 03:33:21;;;;;;;0.93;0.25;;;;;;;;;;6155879;23;20104;-89
2022/11/08 03:35:50;;;;;;;0.65;0.60;;;;;;;;;;6154359;23;20044;-90
2022/11/08 03:38:18;;;;;;;0.43;0.43;;;;;;;;;;6156887;23;20086;-90
2022/11/08 03:40:47;;;;;;;0.85;0.47;;;;;;;;;;6155737;23;20026;-91
2022/11/08 03:43:16;;;;;;;0.50;0.50;;;;;;;;;;6155650;23;20112;-91
2022/11/08 03:45:45;;;;;;;0.40;0.28;;;;;;;;;;6153958;23;20018;-90
2022/11/08 03:48:14;;;;;;;0.90;0.85;;;;;;;;;;6153321;23;20022;-90
2022/11/08 03:50:44;;;;;;;0.17;0.17;;;;;;;;;;6150929;23;20018;-89
2022/11/08 03:53:12;;;;;;;0.60;0.35;;;;;;;;;;6153932;23;20112;-90
2022/11/08 03:55:41;;;;;;;0.20;0.20;;;;;;;;;;6152618;23;20037;-89
2022/11/08 03:58:09;;;;;;;0.35;0.35;;;;;;;;;;6153979;23;20025;-90
2022/11/08 04:00:37;;;;;;;0.80;0.30;;;;;;;;;;6152662;23;20032;-89
2022/11/08 04:03:06;;;;;;;0.50;0.50;;;;;;;;;;6153994;23;20029;-89
2022/11/08 04:05:34;;;;;;;0.20;0.20;;;;;;;;;;6153907;23;20029;-89
2022/11/08 04:08:05;;;;;;;0.43;0.32;;;;;;;;;;6153286;23;20021;-90
2022/11/08 04:10:33;;;;;;;0.98;0.45;;;;;;;;;;6152964;23;20064;-90
2022/11/08 04:15:52;;;;;;;0.17;0.17;;;;;;;;;;6154711;23;20021;-90
2022/11/08 04:21:18;;;;;;;0.22;0.22;;;;;;;;;;6155599;23;20096;-91
2022/11/08 04:23:49;;;;;;;1.08;1.00;;;;;;;;;;6157563;23;20144;-87
2022/11/08 04:26:17;;;;;;;0.00;0.00;;;;;;;;;;6158165;23;20033;-90
2022/11/08 04:28:45;;;;;;;0.38;0.38;;;;;;;;;;6156877;23;20056;-87
2022/11/08 04:31:15;;;;;;;0.20;0.20;;;;;;;;;;6155718;23;20032;-90
2022/11/08 04:33:43;;;;;;;0.52;0.30;;;;;;;;;;6155742;23;20029;-89
2022/11/08 04:36:13;;;;;;;1.15;0.50;;;;;;;;;;6154526;23;20018;-91
2022/11/08 04:38:41;;;;;;;0.25;0.25;;;;;;;;;;6156359;23;20032;-91
2022/11/08 04:41:12;;;;;;;0.30;0.30;;;;;;;;;;6156200;23;20100;-91
2022/11/08 04:43:40;;;;;;;0.30;0.30;;;;;;;;;;6156602;23;20018;-89
2022/11/08 04:46:10;;;;;;;0.10;0.10;;;;;;;;;;6155322;23;20030;-91
2022/11/08 04:48:38;;;;;;;1.02;0.40;;;;;;;;;;6156571;23;20076;-90
2022/11/08 04:51:08;;;;;;;0.25;0.20;;;;;;;;;;6156571;23;20021;-90
2022/11/08 04:53:36;;;;;;;0.20;0.20;;;;;;;;;;6158779;23;20021;-90
2022/11/08 04:56:05;;;;;;;0.70;0.35;;;;;;;;;;6157868;23;20018;-89
2022/11/08 04:58:36;;;;;;;0.40;0.40;;;;;;;;;;6154910;23;20021;-90
2022/11/08 05:01:05;;;;;;;0.28;0.28;;;;;;;;;;6156516;23;20022;-89
2022/11/08 05:03:34;;;;;;;0.93;0.70;;;;;;;;;;6157546;23;20035;-90
2022/11/08 05:06:02;;;;;;;0.70;0.70;;;;;;;;;;6156111;23;20428;-90
2022/11/08 05:08:31;;;;;;;0.43;0.43;;;;;;;;;;6156418;23;20076;-90
2022/11/08 05:11:03;;;;;;;0.90;0.32;;;;;;;;;;6151017;23;20017;-90
2022/11/08 05:13:31;;;;;;;1.20;0.40;;;;;;;;;;6154914;23;20101;-89
2022/11/08 05:16:02;;;;;;;0.10;0.10;;;;;;;;;;6156324;23;20026;-90
2022/11/08 05:18:30;;;;;;;0.30;0.30;;;;;;;;;;6153876;23;20030;-90
2022/11/08 05:23:46;;;;;;;0.20;0.20;;;;;;;;;;6156629;23;20022;-89
2022/11/08 05:26:15;;;;;;;2.95;0.20;;;;;;;;;;6157763;23;20022;-89
2022/11/08 05:28:43;;;;;;;1.25;0.47;;;;;;;;;;6157791;23;20531;-89
2022/11/08 05:31:13;;;;;;;0.10;0.10;;;;;;;;;;6158592;23;20018;-90
2022/11/08 05:33:41;;;;;;;0.13;0.13;;;;;;;;;;6158169;23;20045;-90
2022/11/08 05:36:11;;;;;;;0.43;0.43;;;;;;;;;;6159039;23;20045;-92
2022/11/08 05:38:40;;;;;;;0.10;0.10;;;;;;;;;;6156407;23;20021;-90
2022/11/08 05:41:09;;;;;;;0.10;0.10;;;;;;;;;;6156589;23;20027;-90
2022/11/08 05:43:37;;;;;;;0.47;0.47;;;;;;;;;;6158899;23;20025;-93
2022/11/08 05:46:06;;;;;;;0.55;0.50;;;;;;;;;;6161242;23;20049;-92
2022/11/08 05:48:36;;;;;;;0.40;0.40;;;;;;;;;;6160525;23;20020;-91
2022/11/08 05:51:05;;;;;;;0.10;0.10;;;;;;;;;;6160904;23;20017;-91
2022/11/08 05:53:33;;;;;;;0.40;0.40;;;;;;;;;;6161018;23;20033;-88
2022/11/08 05:56:02;;;;;;;0.35;0.35;;;;;;;;;;6160129;23;20104;-90
2022/11/08 05:58:32;;;;;;;0.15;0.15;;;;;;;;;;6157801;23;20029;-89
2022/11/08 06:01:01;;;;;;;0.35;0.35;;;;;;;;;;6157698;23;20032;-90
2022/11/08 06:03:30;;;;;;;0.15;0.15;;;;;;;;;;6160849;23;20104;-90
2022/11/08 06:06:03;;;;;;;2.85;0.88;;;;;;;;;;6160882;23;20080;-93
2022/11/08 06:08:31;;;;;;;1.40;0.30;;;;;;;;;;6161736;23;20045;-89
2022/11/08 06:11:03;;;;;;;0.82;0.68;;;;;;;;;;6155109;23;20014;-89
2022/11/08 06:13:31;;;;;;;0.22;0.22;;;;;;;;;;6154655;23;20026;-88
2022/11/08 06:16:01;;;;;;;0.30;0.22;;;;;;;;;;6156790;23;20021;-90
2022/11/08 06:18:30;;;;;;;0.13;0.13;;;;;;;;;;6156576;23;20398;-87
2022/11/08 06:20:58;;;;;;;0.25;0.25;;;;;;;;;;6153426;23;20029;-88
2022/11/08 06:23:28;;;;;;;1.13;0.50;;;;;;;;;;6151967;23;20021;-89
2022/11/08 06:25:57;;;;;;;0.10;0.10;;;;;;;;;;6152255;23;20072;-88
2022/11/08 06:28:26;;;;;;;0.20;0.20;;;;;;;;;;6153335;23;20348;-88
2022/11/08 06:30:54;;;;;;;1.10;0.57;;;;;;;;;;6155159;23;20032;-88
2022/11/08 06:33:23;;;;;;;3.10;0.30;;;;;;;;;;6155238;23;20021;-89
2022/11/08 06:35:51;;;;;;;0.30;0.30;;;;;;;;;;6154670;23;20029;-88
2022/11/08 06:38:20;;;;;;;0.55;0.30;;;;;;;;;;6153264;23;20028;-89
2022/11/08 06:40:49;;;;;;;0.40;0.40;;;;;;;;;;6153680;23;20124;-88
2022/11/08 06:43:18;;;;;;;0.30;0.30;;;;;;;;;;6154009;23;20383;-88
2022/11/08 06:45:48;;;;;;;1.02;0.40;;;;;;;;;;6152896;23;20022;-88
2022/11/08 06:48:16;;;;;;;0.20;0.20;;;;;;;;;;6153962;23;20065;-87
2022/11/08 06:50:44;;;;;;;0.32;0.30;;;;;;;;;;6151380;23;20349;-87
2022/11/08 06:53:14;;;;;;;0.20;0.20;;;;;;;;;;6155006;23;20080;-88
2022/11/08 06:55:42;;;;;;;6.28;1.00;;;;;;;;;;6154102;23;20018;-88
2022/11/08 06:58:12;;;;;;;0.40;0.40;;;;;;;;;;6154843;23;20013;-89
2022/11/08 07:00:41;;;;;;;0.95;0.95;;;;;;;;;;6153842;23;20018;-88
2022/11/08 07:03:10;;;;;;;0.43;0.43;;;;;;;;;;6154381;23;20021;-88
2022/11/08 07:05:39;;;;;;;0.20;0.20;;;;;;;;;;6154683;23;20025;-89
2022/11/08 07:08:07;;;;;;;0.52;0.40;;;;;;;;;;6153346;23;20025;-88
2022/11/08 07:10:36;;;;;;;0.20;0.20;;;;;;;;;;6154219;23;20021;-87
2022/11/08 07:13:05;;;;;;;0.32;0.32;;;;;;;;;;6154348;23;20055;-87
2022/11/08 07:15:36;;;;;;;0.40;0.40;;;;;;;;;;6153179;23;20100;-88
2022/11/08 07:18:06;;;;;;;2.58;0.52;;;;;;;;;;6154346;23;20018;-88
2022/11/08 07:20:34;;;;;;;0.30;0.30;;;;;;;;;;6154060;23;20025;-88
2022/11/08 07:23:06;;;;;;;0.35;0.35;;;;;;;;;;6154429;23;20022;-88
2022/11/08 07:25:35;;;;;;;0.50;0.50;;;;;;;;;;6154549;23;20029;-88
2022/11/08 07:28:05;;;;;;;0.20;0.20;;;;;;;;;;6153659;23;20403;-88
2022/11/08 07:30:34;;;;;;;0.20;0.20;;;;;;;;;;6154721;23;20025;-89
2022/11/08 07:33:03;;;;;;;1.08;0.50;;;;;;;;;;6153923;23;20395;-88
2022/11/08 07:35:32;;;;;;;0.40;0.30;;;;;;;;;;6151172;23;20021;-88
2022/11/08 07:38:01;;;;;;;3.78;0.40;;;;;;;;;;6154870;23;20041;-88
2022/11/08 07:40:29;;;;;;;0.50;0.30;;;;;;;;;;6154868;23;20029;-89
2022/11/08 07:42:58;;;;;;;0.40;0.40;;;;;;;;;;6153808;23;20366;-88
2022/11/08 07:45:43;;;;;;;0.63;0.63;;;;;;;;;;6152185;23;20028;-88
2022/11/08 07:48:13;;;;;;;0.10;0.10;;;;;;;;;;6153709;23;20462;-89
2022/11/08 07:50:42;;;;;;;1.08;0.85;;;;;;;;;;6152449;23;20080;-90
2022/11/08 07:53:11;;;;;;;0.13;0.13;;;;;;;;;;6153720;23;20024;-88
2022/11/08 07:55:40;;;;;;;1.17;0.60;;;;;;;;;;6152614;23;20068;-89
2022/11/08 07:58:10;;;;;;;0.52;0.52;;;;;;;;;;6154553;23;20115;-89
2022/11/08 08:00:39;;;;;;;2.45;0.73;;;;;;;;;;6153371;23;20541;-88
2022/11/08 08:03:09;;;;;;;1.35;0.57;;;;;;;;;;6154691;23;20485;-89
2022/11/08 08:05:39;;;;;;;0.40;0.40;;;;;;;;;;6152989;23;20028;-89
2022/11/08 08:08:08;;;;;;;0.82;0.55;;;;;;;;;;6154069;23;20028;-89
2022/11/08 08:10:36;;;;;;;0.35;0.35;;;;;;;;;;6155475;23;20045;-89
2022/11/08 08:13:06;;;;;;;2.30;0.30;;;;;;;;;;6157926;23;20032;-89
2022/11/08 08:15:34;;;;;;;0.30;0.30;;;;;;;;;;6156642;23;20021;-89
2022/11/08 08:18:04;;;;;;;1.00;0.35;;;;;;;;;;6155639;23;20490;-92
2022/11/08 08:20:33;;;;;;;5.93;0.90;;;;;;;;;;6157478;23;20022;-91
2022/11/08 08:23:02;;;;;;;1.40;1.02;;;;;;;;;;6157034;23;20052;-91
2022/11/08 08:25:31;;;;;;;0.20;0.20;;;;;;;;;;6158395;23;20029;-90
2022/11/08 08:28:01;;;;;;;0.57;0.57;;;;;;;;;;6158142;23;20534;-90
2022/11/08 08:30:30;;;;;;;0.82;0.63;;;;;;;;;;6156300;23;20022;-92
2022/11/08 08:33:03;;;;;;;0.20;0.20;;;;;;;;;;6158528;23;20422;-93
2022/11/08 08:35:52;;;;;;;0.70;0.65;;;;;;;;;;6155238;23;20104;-90
2022/11/08 08:38:22;;;;;;;0.30;0.30;;;;;;;;;;6156999;23;20355;-90
2022/11/08 08:40:51;;;;;;;4.90;0.75;;;;;;;;;;6155402;23;20092;-91
2022/11/08 08:43:20;;;;;;;0.30;0.30;;;;;;;;;;6156408;23;20025;-90
2022/11/08 08:45:49;;;;;;;0.35;0.35;;;;;;;;;;6156134;23;20431;-92
2022/11/08 08:48:17;;;;;;;0.20;0.20;;;;;;;;;;6157114;23;20021;-91
2022/11/08 08:50:49;;;;;;;0.52;0.32;;;;;;;;;;6154089;23;20025;-89
2022/11/08 08:53:17;;;;;;;1.75;1.10;;;;;;;;;;6156866;23;20424;-90
2022/11/08 08:55:51;;;;;;;0.10;0.10;;;;;;;;;;6155755;23;20017;-90
2022/11/08 08:58:19;;;;;;;0.68;0.20;;;;;;;;;;6155562;23;20017;-91
2022/11/08 09:00:48;;;;;;;0.38;0.35;;;;;;;;;;6153267;23;20076;-91
2022/11/08 09:03:37;;;;;;;0.30;0.30;;;;;;;;;;6154525;23;20354;-89
2022/11/08 09:06:05;;;;;;;0.20;0.20;;;;;;;;;;6155672;23;20092;-91
2022/11/08 09:08:34;;;;;;;0.65;0.38;;;;;;;;;;6155807;23;20060;-93
2022/11/08 09:11:04;;;;;;;1.00;0.45;;;;;;;;;;6154164;23;20022;-90
2022/11/08 09:13:32;;;;;;;0.82;0.43;;;;;;;;;;6154481;23;20018;-90
2022/11/08 09:16:02;;;;;;;0.30;0.25;;;;;;;;;;6153255;23;20462;-90
2022/11/08 09:18:32;;;;;;;0.32;0.32;;;;;;;;;;6155242;23;20045;-91
2022/11/08 09:21:03;;;;;;;0.28;0.20;;;;;;;;;;6155586;23;20029;-91
2022/11/08 09:23:35;;;;;;;0.43;0.40;;;;;;;;;;6155978;23;20104;-90
2022/11/08 09:26:06;;;;;;;0.30;0.30;;;;;;;;;;6155966;23;20022;-90
2022/11/08 09:28:38;;;;;;;0.20;0.20;;;;;;;;;;6156029;23;20014;-92
2022/11/08 09:31:07;;;;;;;0.65;0.28;;;;;;;;;;6155090;23;20021;-92
2022/11/08 09:33:37;;;;;;;0.73;0.43;;;;;;;;;;6157167;23;20136;-92
2022/11/08 09:36:07;;;;;;;0.47;0.32;;;;;;;;;;6157693;23;20026;-92
2022/11/08 09:38:35;;;;;;;0.47;0.22;;;;;;;;;;6157688;23;20033;-93
2022/11/08 09:41:19;;;;;;;1.02;0.30;;;;;;;;;;6155260;23;20111;-92
2022/11/08 09:43:53;;;;;;;0.30;0.30;;;;;;;;;;6136400;23;20141;-91
2022/11/08 09:46:26;;;;;;;0.30;0.30;;;;;;;;;;6156645;23;20017;-92
2022/11/08 09:48:56;;;;;;;0.15;0.15;;;;;;;;;;6155880;23;20057;-92
2022/11/08 09:51:25;;;;;;;2.67;0.30;;;;;;;;;;6155663;23;20237;-94
2022/11/08 09:53:54;;;;;;;0.30;0.30;;;;;;;;;;6157756;23;20096;-93
2022/11/08 09:56:25;;;;;;;0.88;0.25;;;;;;;;;;6155656;23;20021;-92
2022/11/08 09:59:00;;;;;;;0.25;0.20;;;;;;;;;;6156950;23;20025;-93
2022/11/08 10:01:31;;;;;;;0.88;0.47;;;;;;;;;;6156493;23;20017;-93
2022/11/08 10:04:02;;;;;;;0.80;0.20;;;;;;;;;;6157374;23;20025;-93
2022/11/08 10:06:46;;;;;;;0.25;0.25;;;;;;;;;;6157206;23;20022;-92
2022/11/08 10:09:25;;;;;;;1.35;0.68;;;;;;;;;;6138744;23;20029;-92
2022/11/08 10:12:02;;;;;;;0.40;0.40;;;;;;;;;;6156416;23;20469;-91
2022/11/08 10:14:38;;;;;;;4.90;0.30;;;;;;;;;;6155956;23;20545;-91
2022/11/08 10:17:30;;;;;;;0.30;0.20;;;;;;;;;;6156881;23;20029;-92
2022/11/08 10:20:04;;;;;;;0.57;0.32;;;;;;;;;;6157021;23;20529;-91
2022/11/08 10:22:39;;;;;;;0.40;0.40;;;;;;;;;;6154258;23;20032;-92
2022/11/08 10:25:15;;;;;;;0.55;0.25;;;;;;;;;;6156432;23;20079;-93
2022/11/08 10:27:44;;;;;;;0.10;0.10;;;;;;;;;;6156457;23;20029;-92
2022/11/08 10:30:18;;;;;;;2.05;0.20;;;;;;;;;;6156546;23;20497;-94
2022/11/08 10:32:49;;;;;;;0.30;0.28;;;;;;;;;;6155675;23;20440;-93
2022/11/08 10:35:20;;;;;;;0.43;0.30;;;;;;;;;;6157099;23;20473;-90
2022/11/08 10:37:50;;;;;;;0.13;0.13;;;;;;;;;;6156928;23;20101;-93
2022/11/08 10:40:22;;;;;;;0.68;0.15;;;;;;;;;;6156203;23;20057;-93
2022/11/08 10:42:53;;;;;;;0.32;0.20;;;;;;;;;;6155575;23;20522;-93
2022/11/08 10:45:23;;;;;;;0.55;0.35;;;;;;;;;;6156477;23;20026;-92
2022/11/08 10:47:52;;;;;;;0.25;0.25;;;;;;;;;;6157148;23;20065;-94
2022/11/08 10:50:23;;;;;;;1.23;0.40;;;;;;;;;;6157685;23;20028;-93
2022/11/08 10:52:55;;;;;;;0.20;0.20;;;;;;;;;;6155580;23;20024;-92
2022/11/08 10:55:25;;;;;;;0.15;0.15;;;;;;;;;;6157608;23;20028;-93
2022/11/08 10:57:54;;;;;;;2.33;0.38;;;;;;;;;;6155939;23;20029;-93
2022/11/08 11:00:29;;;;;;;0.10;0.10;;;;;;;;;;6158400;23;20052;-92
2022/11/08 11:02:58;;;;;;;0.45;0.40;;;;;;;;;;6154761;23;20017;-93
2022/11/08 11:05:29;;;;;;;0.17;0.17;;;;;;;;;;6156681;23;20041;-91
2022/11/08 11:08:02;;;;;;;0.20;0.20;;;;;;;;;;6156570;23;20018;-92
2022/11/08 11:10:32;;;;;;;1.50;0.63;;;;;;;;;;6156678;23;20018;-93
2022/11/08 11:13:02;;;;;;;0.30;0.30;;;;;;;;;;6155194;23;20024;-93
2022/11/08 11:15:36;;;;;;;4.80;0.50;;;;;;;;;;6155655;23;20100;-93
2022/11/08 11:18:05;;;;;;;0.10;0.10;;;;;;;;;;6157210;23;20032;-92
2022/11/08 11:20:34;;;;;;;0.85;0.32;;;;;;;;;;6155373;23;20057;-93
2022/11/08 11:23:02;;;;;;;0.95;0.40;;;;;;;;;;6155336;23;20064;-92
2022/11/08 11:25:31;;;;;;;2.03;0.35;;;;;;;;;;6155726;23;20072;-93
2022/11/08 11:28:00;;;;;;;0.80;0.30;;;;;;;;;;6156014;23;20040;-94
2022/11/08 11:30:29;;;;;;;0.32;0.32;;;;;;;;;;6157421;23;20023;-92
2022/11/08 11:33:04;;;;;;;0.20;0.20;;;;;;;;;;6156854;23;20032;-93
2022/11/08 11:35:39;;;;;;;0.20;0.20;;;;;;;;;;6159425;23;20048;-93
2022/11/08 11:38:12;;;;;;;1.30;0.30;;;;;;;;;;6157536;23;20033;-89
2022/11/08 11:40:43;;;;;;;1.63;0.75;;;;;;;;;;6157825;23;20018;-90
2022/11/08 11:43:12;;;;;;;3.08;0.32;;;;;;;;;;6154994;23;20024;-93
2022/11/08 11:45:44;;;;;;;0.85;0.35;;;;;;;;;;6157575;23;20037;-95
2022/11/08 11:48:16;;;;;;;0.68;0.40;;;;;;;;;;6158763;23;20053;-91
2022/11/08 11:50:46;;;;;;;0.60;0.30;;;;;;;;;;6158003;23;20025;-94
2022/11/08 11:53:17;;;;;;;0.35;0.30;;;;;;;;;;6158490;23;20064;-94
2022/11/08 11:55:55;;;;;;;0.70;0.40;;;;;;;;;;6158851;23;20029;-92
2022/11/08 11:58:28;;;;;;;1.00;0.70;;;;;;;;;;6158654;23;20023;-94
2022/11/08 12:00:58;;;;;;;1.48;0.28;;;;;;;;;;6157715;23;20537;-93
2022/11/08 12:03:36;;;;;;;2.63;0.40;;;;;;;;;;6158697;23;20041;-92
2022/11/08 12:06:14;;;;;;;0.90;0.40;;;;;;;;;;6156525;23;20028;-92
2022/11/08 12:08:50;;;;;;;0.68;0.40;;;;;;;;;;6155517;23;20109;-92
2022/11/08 12:11:28;;;;;;;0.30;0.30;;;;;;;;;;6157276;23;20108;-91
2022/11/08 12:14:03;;;;;;;0.20;0.20;;;;;;;;;;6157537;23;20021;-92
2022/11/08 12:16:31;;;;;;;;;;;;;;;;;;6155981;23;20022;-93
2022/11/08 12:19:07;;;;;;;0.40;0.30;;;;;;;;;;6157235;23;19923;-91
2022/11/08 12:21:40;;;;;;;1.33;0.30;;;;;;;;;;6156850;23;20025;-91
2022/11/08 12:24:20;;;;;;;0.77;0.40;;;;;;;;;;6156208;23;20320;-90
2022/11/08 12:26:52;;;;;;;1.10;0.35;;;;;;;;;;6156092;23;20025;-87
2022/11/08 12:29:24;;;;;;;0.57;0.15;;;;;;;;;;6155466;23;20052;-92
2022/11/08 12:32:00;;;;;;;0.40;0.30;;;;;;;;;;6156122;23;20021;-93
2022/11/08 12:34:35;;;;;;;0.65;0.35;;;;;;;;;;6158438;23;20026;-93
2022/11/08 12:37:04;;;;;;;;;;;;;;;;;;6159331;23;20029;-93
2022/11/08 12:39:35;;;;;;;0.57;0.30;;;;;;;;;;6158009;23;19917;-93
2022/11/08 12:42:19;;;;;;;0.10;0.10;;;;;;;;;;6155206;23;20025;-93
2022/11/08 12:44:58;;;;;;;1.00;0.73;;;;;;;;;;6153815;23;20024;-92
2022/11/08 12:47:31;;;;;;;2.67;0.28;;;;;;;;;;6155032;23;20029;-92
2022/11/08 12:50:04;;;;;;;1.38;0.80;;;;;;;;;;6153868;23;20063;-90
2022/11/08 12:52:41;;;;;;;1.10;0.95;;;;;;;;;;6151615;23;20033;-89
2022/11/08 12:55:14;;;;;;;1.38;0.25;;;;;;;;;;6150906;23;20104;-90
2022/11/08 12:57:43;;;;;;;1.10;0.20;;;;;;;;;;6151054;23;20049;-90
2022/11/08 13:00:17;;;;;;;0.30;0.30;;;;;;;;;;6151999;23;20024;-89
2022/11/08 13:02:47;;;;;;;0.85;0.30;;;;;;;;;;6152628;23;20021;-89
2022/11/08 13:05:20;;;;;;;0.55;0.25;;;;;;;;;;6153881;23;20053;-90
2022/11/08 13:07:51;;;;;;;0.40;0.30;;;;;;;;;;6154617;23;20477;-88
2022/11/08 13:10:24;;;;;;;0.77;0.30;;;;;;;;;;6154659;23;20448;-90
2022/11/08 13:13:03;;;;;;;0.40;0.32;;;;;;;;;;6153594;23;20029;-90
2022/11/08 13:15:31;;;;;;;1.25;0.60;;;;;;;;;;6156043;23;20069;-90
2022/11/08 13:18:18;;;;;;;0.70;0.43;;;;;;;;;;6153315;23;20543;-89
2022/11/08 13:20:49;;;;;;;0.70;0.50;;;;;;;;;;6154511;23;20022;-89
2022/11/08 13:23:22;;;;;;;0.88;0.40;;;;;;;;;;6155365;23;20024;-92
2022/11/08 13:25:52;;;;;;;4.00;1.13;;;;;;;;;;6154984;23;20018;-89
2022/11/08 13:28:39;;;;;;;3.30;0.30;;;;;;;;;;6154132;23;20340;-89
2022/11/08 13:31:18;;;;;;;1.17;0.60;;;;;;;;;;6152090;23;20017;-88
2022/11/08 13:33:51;;;;;;;2.30;0.50;;;;;;;;;;6154143;23;20017;-89
2022/11/08 13:36:26;;;;;;;0.40;0.30;;;;;;;;;;6155257;23;20113;-89
2022/11/08 13:39:01;;;;;;;0.32;0.32;;;;;;;;;;6154135;23;20025;-90
2022/11/08 13:41:29;;;;;;;0.65;0.32;;;;;;;;;;6154078;23;20096;-89
2022/11/08 13:43:59;;;;;;;0.60;0.22;;;;;;;;;;6154465;23;20029;-89
2022/11/08 13:46:46;;;;;;;0.52;0.30;;;;;;;;;;6153357;23;20025;-90
2022/11/08 13:49:16;;;;;;;0.50;0.38;;;;;;;;;;6154415;23;20331;-91
2022/11/08 13:51:46;;;;;;;0.85;0.40;;;;;;;;;;6152943;23;20340;-90
2022/11/08 13:54:31;;;;;;;1.38;0.75;;;;;;;;;;6152761;23;20025;-90
2022/11/08 13:56:59;;;;;;;0.98;0.82;;;;;;;;;;6132123;23;20031;-91
2022/11/08 13:59:49;;;;;;;0.40;0.35;;;;;;;;;;6152442;23;20296;-90
2022/11/08 14:02:30;;;;;;;1.15;0.55;;;;;;;;;;6153205;23;20044;-89
2022/11/08 14:05:12;;;;;;;0.77;0.52;;;;;;;;;;6153299;23;20116;-89
2022/11/08 14:07:44;;;;;;;0.20;0.10;;;;;;;;;;6154732;23;20104;-88
2022/11/08 14:10:18;;;;;;;0.98;0.43;;;;;;;;;;6153030;23;20026;-90
2022/11/08 14:12:50;;;;;;;4.00;0.70;;;;;;;;;;6153750;23;20017;-89
2022/11/08 14:15:21;;;;;;;2.83;0.40;;;;;;;;;;6153503;23;20085;-89
2022/11/08 14:17:52;;;;;;;2.50;0.60;;;;;;;;;;6153542;23;20018;-91
2022/11/08 14:20:27;;;;;;;0.90;0.57;;;;;;;;;;6154442;23;20021;-92
2022/11/08 14:22:56;;;;;;;;;;;;;;;;;;6153043;23;20105;-90
2022/11/08 14:25:28;;;;;;;0.55;0.40;;;;;;;;;;6153584;23;19916;-90
2022/11/08 14:27:57;;;;;;;0.30;0.30;;;;;;;;;;6154490;23;20027;-90
2022/11/08 14:30:25;;;;;;;0.50;0.50;;;;;;;;;;6153507;23;20482;-89
2022/11/08 14:33:07;;;;;;;1.75;0.63;;;;;;;;;;6154118;23;20017;-90
2022/11/08 14:35:36;;;;;;;0.45;0.30;;;;;;;;;;6153903;23;20053;-91
2022/11/08 14:38:04;;;;;;;5.07;0.63;;;;;;;;;;6151404;23;20021;-91
2022/11/08 14:40:34;;;;;;;5.55;0.30;;;;;;;;;;6153791;23;20491;-91
2022/11/08 14:43:02;;;;;;;1.63;1.00;;;;;;;;;;6152940;23;20028;-91
2022/11/08 14:45:30;;;;;;;1.17;1.08;;;;;;;;;;6153945;23;20101;-90
2022/11/08 14:48:02;;;;;;;0.30;0.30;;;;;;;;;;6153798;23;20026;-90
2022/11/08 14:50:32;;;;;;;4.05;0.80;;;;;;;;;;6153761;23;20526;-90
2022/11/08 14:53:19;;;;;;;5.65;0.60;;;;;;;;;;6153220;23;20060;-90
2022/11/08 14:55:54;;;;;;;0.75;0.40;;;;;;;;;;6153582;23;20104;-90
2022/11/08 14:58:22;;;;;;;0.85;0.45;;;;;;;;;;6151382;23;20022;-88
2022/11/08 15:00:51;;;;;;;0.98;0.60;;;;;;;;;;6150140;23;20017;-90
2022/11/08 15:03:19;;;;;;;0.40;0.40;;;;;;;;;;6151543;23;20032;-90
2022/11/08 15:05:55;;;;;;;1.35;0.50;;;;;;;;;;6153839;23;20113;-89
2022/11/08 15:08:27;;;;;;;4.53;0.50;;;;;;;;;;6154042;23;20021;-90
2022/11/08 15:10:59;;;;;;;6.82;0.40;;;;;;;;;;6152229;23;20506;-91
2022/11/08 15:13:28;;;;;;;1.08;0.57;;;;;;;;;;6153779;23;20021;-91
2022/11/08 15:16:01;;;;;;;2.53;0.73;;;;;;;;;;6152659;23;20028;-91
2022/11/08 15:18:31;;;;;;;2.90;0.47;;;;;;;;;;6153741;23;20506;-91
2022/11/08 15:21:01;;;;;;;1.05;0.55;;;;;;;;;;6153545;23;20048;-91
2022/11/08 15:23:41;;;;;;;0.30;0.30;;;;;;;;;;6153469;23;20066;-91
2022/11/08 15:26:24;;;;;;;2.10;0.50;;;;;;;;;;6153055;23;20100;-90